Terminal Aerodrome Forecast
Issued by NWS

Home | Current Version | Previous Version | Text Only | Print | Product List | Glossary On
Versions: 1 2 3 4 5 6 7 8 9 10 11 12 13 14
223
FTUS46 KSGX 160520
TAFSNA
TAF
KSNA 160520Z 1606/1706 22007KT P6SM BKN250
     FM161300 13005KT P6SM BKN012
     FM161900 19006KT P6SM SCT020
     FM170300 VRB03KT P6SM SKC=

USA.gov is the U.S. government's official web portal to all federal, state and local government web resources and services.